Time;durP1;ratioP1;P1;durP2;ratioP2;P2;SDS_P1;SDS_P2;PMS_P1;PMS_P2;Temp;Humidity;BMP_temperature;BMP_pressure;BME280_temperature;BME280_humidity;BME280_pressure;Samples;Min_cycle;Max_cycle;Signal;HPM_P1;HPM_P2
2021/12/14 00:01:34;;;;;;;0.40;0.40;;;;;;;;;;5051569;28;20266;-64
2021/12/14 00:04:06;;;;;;;0.50;0.50;;;;;;;;;;5051653;28;20879;-65
2021/12/14 00:06:32;;;;;;;0.50;0.50;;;;;;;;;;5051753;28;20183;-64
2021/12/14 00:09:00;;;;;;;0.50;0.50;;;;;;;;;;5051696;28;20566;-64
2021/12/14 00:16:48;;;;;;;0.40;0.40;;;;;;;;;;5040219;28;20553;-64
2021/12/14 00:19:14;;;;;;;0.60;0.60;;;;;;;;;;5050424;28;20644;-64
2021/12/14 00:21:43;;;;;;;0.50;0.50;;;;;;;;;;5051221;28;20182;-63
2021/12/14 00:24:11;;;;;;;0.50;0.50;;;;;;;;;;5050774;28;20218;-64
2021/12/14 00:26:49;;;;;;;0.40;0.40;;;;;;;;;;5051630;28;20171;-64
2021/12/14 00:29:21;;;;;;;0.40;0.40;;;;;;;;;;5051608;28;20182;-64
2021/12/14 00:31:48;;;;;;;0.40;0.40;;;;;;;;;;5051254;28;20175;-64
2021/12/14 00:34:22;;;;;;;0.40;0.40;;;;;;;;;;5051420;28;20202;-64
2021/12/14 00:36:48;;;;;;;0.40;0.40;;;;;;;;;;5034729;28;20733;-64
2021/12/14 00:39:14;;;;;;;0.50;0.50;;;;;;;;;;5051472;28;20185;-64
2021/12/14 00:41:41;;;;;;;0.40;0.40;;;;;;;;;;5051281;28;20215;-65
2021/12/14 00:44:08;;;;;;;0.40;0.40;;;;;;;;;;5050948;28;20207;-64
2021/12/14 00:46:36;;;;;;;0.50;0.50;;;;;;;;;;5050412;28;20175;-64
2021/12/14 00:49:02;;;;;;;0.50;0.50;;;;;;;;;;5053492;28;20551;-64
2021/12/14 00:51:28;;;;;;;0.50;0.50;;;;;;;;;;5070779;28;20178;-64
2021/12/14 00:53:56;;;;;;;0.40;0.40;;;;;;;;;;5071482;28;20194;-64
2021/12/14 00:56:22;;;;;;;0.40;0.40;;;;;;;;;;5071371;28;20640;-64
2021/12/14 00:58:48;;;;;;;0.55;0.55;;;;;;;;;;5071214;28;20181;-64
2021/12/14 01:01:17;;;;;;;0.50;0.50;;;;;;;;;;5070986;28;20178;-64
2021/12/14 01:03:46;;;;;;;0.50;0.50;;;;;;;;;;5070913;28;20990;-64
2021/12/14 01:06:12;;;;;;;0.40;0.40;;;;;;;;;;5071103;28;20174;-64
2021/12/14 01:08:40;;;;;;;0.50;0.50;;;;;;;;;;5071136;28;20229;-64
2021/12/14 01:11:12;;;;;;;0.40;0.40;;;;;;;;;;5070870;28;20194;-64
2021/12/14 01:13:43;;;;;;;0.40;0.40;;;;;;;;;;5071137;28;20206;-64
2021/12/14 01:16:17;;;;;;;0.50;0.50;;;;;;;;;;5071069;28;20182;-63
2021/12/14 01:18:48;;;;;;;0.50;0.50;;;;;;;;;;5071061;28;20181;-64
2021/12/14 01:24:06;;;;;;;0.50;0.50;;;;;;;;;;5071050;28;20224;-64
2021/12/14 01:26:34;;;;;;;0.50;0.50;;;;;;;;;;5071071;28;20259;-64
2021/12/14 01:29:01;;;;;;;0.50;0.50;;;;;;;;;;5070888;28;20268;-65
2021/12/14 01:31:32;;;;;;;0.40;0.40;;;;;;;;;;5070745;28;20171;-64
2021/12/14 01:34:01;;;;;;;0.40;0.40;;;;;;;;;;5071747;28;20206;-64
2021/12/14 01:41:37;;;;;;;0.50;0.50;;;;;;;;;;5074294;28;20175;-64
2021/12/14 01:44:04;;;;;;;0.40;0.40;;;;;;;;;;5073715;28;20209;-64
2021/12/14 01:46:32;;;;;;;0.40;0.40;;;;;;;;;;5073356;28;20173;-64
2021/12/14 01:49:04;;;;;;;0.40;0.40;;;;;;;;;;5074214;28;20186;-64
2021/12/14 01:51:30;;;;;;;0.40;0.40;;;;;;;;;;5074046;28;20224;-64
2021/12/14 01:53:57;;;;;;;0.40;0.40;;;;;;;;;;5073916;28;20194;-64
2021/12/14 01:56:24;;;;;;;0.50;0.50;;;;;;;;;;5074146;28;20413;-64
2021/12/14 01:58:52;;;;;;;0.40;0.40;;;;;;;;;;5074040;28;20213;-64
2021/12/14 02:01:20;;;;;;;0.40;0.40;;;;;;;;;;5055825;28;20307;-64
2021/12/14 02:03:52;;;;;;;0.40;0.40;;;;;;;;;;5073791;28;20202;-64
2021/12/14 02:06:20;;;;;;;0.40;0.40;;;;;;;;;;5073805;28;20249;-64
2021/12/14 02:08:46;;;;;;;0.40;0.40;;;;;;;;;;5073796;28;20538;-64
2021/12/14 02:11:13;;;;;;;0.40;0.40;;;;;;;;;;5073534;28;20177;-64
2021/12/14 02:13:43;;;;;;;0.40;0.40;;;;;;;;;;5073596;28;20286;-64
2021/12/14 02:16:11;;;;;;;0.40;0.40;;;;;;;;;;5073666;28;20185;-64
2021/12/14 02:18:37;;;;;;;0.40;0.40;;;;;;;;;;5055655;28;20185;-64
2021/12/14 02:21:10;;;;;;;0.40;0.40;;;;;;;;;;5073237;28;20178;-64
2021/12/14 02:23:38;;;;;;;0.40;0.40;;;;;;;;;;5073407;28;20208;-64
2021/12/14 02:26:05;;;;;;;0.50;0.50;;;;;;;;;;5073598;28;20175;-64
2021/12/14 02:28:31;;;;;;;0.40;0.40;;;;;;;;;;5073399;28;20177;-64
2021/12/14 02:30:58;;;;;;;0.50;0.50;;;;;;;;;;5073212;28;20170;-64
2021/12/14 02:33:35;;;;;;;0.50;0.50;;;;;;;;;;5073205;28;20181;-64
2021/12/14 02:36:04;;;;;;;0.50;0.50;;;;;;;;;;5073337;28;20203;-63
2021/12/14 02:38:30;;;;;;;0.40;0.40;;;;;;;;;;5073173;28;20182;-64
2021/12/14 02:41:05;;;;;;;0.40;0.40;;;;;;;;;;5054910;28;20545;-64
2021/12/14 02:43:36;;;;;;;0.40;0.40;;;;;;;;;;5072989;28;20212;-64
2021/12/14 02:46:08;;;;;;;0.50;0.50;;;;;;;;;;5072217;28;20166;-64
2021/12/14 02:48:35;;;;;;;0.40;0.40;;;;;;;;;;5071581;28;20177;-64
2021/12/14 02:51:08;;;;;;;0.40;0.40;;;;;;;;;;5072561;28;20193;-64
2021/12/14 02:53:34;;;;;;;0.40;0.40;;;;;;;;;;5072826;28;20779;-64
2021/12/14 02:56:00;;;;;;;0.40;0.40;;;;;;;;;;5072940;28;20537;-63
2021/12/14 02:58:27;;;;;;;0.40;0.40;;;;;;;;;;5072892;28;20169;-64
2021/12/14 03:00:55;;;;;;;0.40;0.40;;;;;;;;;;5054875;28;20406;-64
2021/12/14 03:03:21;;;;;;;0.40;0.40;;;;;;;;;;5072605;28;20200;-64
2021/12/14 03:05:48;;;;;;;0.40;0.40;;;;;;;;;;5072667;28;20170;-64
2021/12/14 03:08:20;;;;;;;0.40;0.40;;;;;;;;;;5072730;28;20190;-64
2021/12/14 03:10:55;;;;;;;0.50;0.50;;;;;;;;;;5072513;28;20253;-64
2021/12/14 03:13:22;;;;;;;0.40;0.40;;;;;;;;;;5072509;28;20185;-64
2021/12/14 03:15:52;;;;;;;0.50;0.50;;;;;;;;;;5054589;28;20284;-64
2021/12/14 03:18:21;;;;;;;0.40;0.40;;;;;;;;;;5072353;28;20193;-64
2021/12/14 03:20:48;;;;;;;0.40;0.40;;;;;;;;;;5072439;28;20548;-64
2021/12/14 03:23:17;;;;;;;0.40;0.40;;;;;;;;;;5072148;28;20205;-63
2021/12/14 03:25:45;;;;;;;0.40;0.40;;;;;;;;;;5072259;28;20205;-64
2021/12/14 03:28:13;;;;;;;0.40;0.40;;;;;;;;;;5072337;28;20663;-65
2021/12/14 03:30:49;;;;;;;0.40;0.40;;;;;;;;;;5072070;28;20174;-64
2021/12/14 03:33:18;;;;;;;0.40;0.40;;;;;;;;;;5072100;28;20188;-64
2021/12/14 03:35:49;;;;;;;0.40;0.40;;;;;;;;;;5108169;22;20604;-66
2021/12/14 03:38:21;;;;;;;0.40;0.40;;;;;;;;;;5091888;28;20181;-66
2021/12/14 03:40:56;;;;;;;0.40;0.40;;;;;;;;;;5092144;28;20170;-65
2021/12/14 03:43:22;;;;;;;0.40;0.40;;;;;;;;;;5092327;28;20751;-66
2021/12/14 03:45:48;;;;;;;0.40;0.40;;;;;;;;;;5092226;28;20194;-65
2021/12/14 03:48:14;;;;;;;0.40;0.40;;;;;;;;;;5092183;28;20173;-66
2021/12/14 03:50:41;;;;;;;0.40;0.40;;;;;;;;;;5091837;28;20174;-66
2021/12/14 03:53:08;;;;;;;0.40;0.40;;;;;;;;;;5092130;28;20795;-66
2021/12/14 03:55:38;;;;;;;0.40;0.40;;;;;;;;;;5092053;28;20194;-66
2021/12/14 03:58:09;;;;;;;0.50;0.50;;;;;;;;;;5073879;28;20173;-65
2021/12/14 04:00:38;;;;;;;0.40;0.40;;;;;;;;;;5091898;28;20173;-64
2021/12/14 04:03:06;;;;;;;0.40;0.40;;;;;;;;;;5092044;28;20841;-65
2021/12/14 04:05:34;;;;;;;0.40;0.40;;;;;;;;;;5091966;28;20646;-66
2021/12/14 04:08:00;;;;;;;0.40;0.40;;;;;;;;;;5091979;28;20641;-65
2021/12/14 04:10:29;;;;;;;0.40;0.40;;;;;;;;;;5091682;28;20541;-66
2021/12/14 04:12:55;;;;;;;0.43;0.43;;;;;;;;;;5092282;28;20171;-66
2021/12/14 04:15:22;;;;;;;0.50;0.50;;;;;;;;;;5091797;28;20205;-67
2021/12/14 04:17:48;;;;;;;0.50;0.50;;;;;;;;;;5091866;28;20221;-66
2021/12/14 04:20:34;;;;;;;0.40;0.40;;;;;;;;;;5091781;28;20181;-64
2021/12/14 04:23:01;;;;;;;0.40;0.40;;;;;;;;;;5091868;28;20541;-65
2021/12/14 04:25:31;;;;;;;0.40;0.40;;;;;;;;;;5091748;28;20192;-65
2021/12/14 04:27:58;;;;;;;0.40;0.40;;;;;;;;;;5091925;28;20329;-66
2021/12/14 04:30:27;;;;;;;0.40;0.40;;;;;;;;;;5091392;28;20200;-66
2021/12/14 04:32:55;;;;;;;0.40;0.40;;;;;;;;;;5091679;28;20177;-66
2021/12/14 04:35:21;;;;;;;0.40;0.40;;;;;;;;;;5091410;28;20224;-63
2021/12/14 04:37:49;;;;;;;0.50;0.50;;;;;;;;;;5091654;28;20176;-65
2021/12/14 04:51:51;;;;;;;0.50;0.50;;;;;;;;;;5091445;28;20240;-66
2021/12/14 04:54:09;;;;;;;0.40;0.40;;;;;;;;;;5091518;28;20337;-66
2021/12/14 04:56:45;;;;;;;0.40;0.40;;;;;;;;;;5091368;28;20729;-66
2021/12/14 04:59:20;;;;;;;0.40;0.40;;;;;;;;;;5091505;28;20890;-66
2021/12/14 05:01:47;;;;;;;0.40;0.40;;;;;;;;;;5091286;28;20192;-65
2021/12/14 05:04:17;;;;;;;0.40;0.40;;;;;;;;;;5091275;28;20216;-66
2021/12/14 05:06:49;;;;;;;0.40;0.40;;;;;;;;;;5091473;28;20169;-66
2021/12/14 05:09:26;;;;;;;0.40;0.40;;;;;;;;;;5092775;28;20177;-66
2021/12/14 05:11:53;;;;;;;0.50;0.50;;;;;;;;;;5095140;28;20547;-66
2021/12/14 05:14:20;;;;;;;0.40;0.40;;;;;;;;;;5090378;28;20197;-64
2021/12/14 05:16:46;;;;;;;0.50;0.50;;;;;;;;;;5050246;28;20689;-64
2021/12/14 05:19:13;;;;;;;0.40;0.40;;;;;;;;;;5095086;28;20178;-66
2021/12/14 05:21:44;;;;;;;0.50;0.50;;;;;;;;;;5094833;28;20174;-66
2021/12/14 05:24:11;;;;;;;0.50;0.50;;;;;;;;;;5094823;28;20288;-66
2021/12/14 05:26:37;;;;;;;0.50;0.50;;;;;;;;;;5078907;28;20214;-66
2021/12/14 05:29:04;;;;;;;0.40;0.40;;;;;;;;;;5064602;28;20180;-66
2021/12/14 05:31:31;;;;;;;0.50;0.50;;;;;;;;;;5055382;28;20198;-66
2021/12/14 05:33:57;;;;;;;0.50;0.50;;;;;;;;;;5066333;28;20190;-66
2021/12/14 05:36:24;;;;;;;0.40;0.40;;;;;;;;;;5062273;28;20186;-66
2021/12/14 05:44:04;;;;;;;0.40;0.40;;;;;;;;;;5074307;28;20272;-66
2021/12/14 05:46:31;;;;;;;0.45;0.45;;;;;;;;;;5074400;28;20170;-66
2021/12/14 05:49:01;;;;;;;0.50;0.50;;;;;;;;;;5074395;28;20710;-65
2021/12/14 05:51:31;;;;;;;0.50;0.50;;;;;;;;;;5062521;28;20175;-66
2021/12/14 05:53:57;;;;;;;0.50;0.50;;;;;;;;;;5072924;28;20185;-66
2021/12/14 05:56:25;;;;;;;0.50;0.50;;;;;;;;;;5074078;28;20261;-66
2021/12/14 05:58:52;;;;;;;0.50;0.50;;;;;;;;;;5073999;28;20183;-65
2021/12/14 06:01:20;;;;;;;0.50;0.50;;;;;;;;;;5073847;28;20179;-66
2021/12/14 06:03:50;;;;;;;0.50;0.50;;;;;;;;;;5087129;28;20197;-66
2021/12/14 06:06:18;;;;;;;0.40;0.40;;;;;;;;;;5094109;28;20170;-66
2021/12/14 06:08:45;;;;;;;0.40;0.40;;;;;;;;;;5074023;28;20587;-66
2021/12/14 06:11:24;;;;;;;0.50;0.50;;;;;;;;;;5073598;28;20225;-64
2021/12/14 06:13:50;;;;;;;0.50;0.50;;;;;;;;;;5073816;28;20609;-61
2021/12/14 06:16:25;;;;;;;0.50;0.50;;;;;;;;;;5073969;28;20227;-65
2021/12/14 06:18:52;;;;;;;0.50;0.50;;;;;;;;;;5073802;28;20186;-66
2021/12/14 06:21:28;;;;;;;0.50;0.50;;;;;;;;;;5072153;28;20270;-65
2021/12/14 06:24:00;;;;;;;0.50;0.50;;;;;;;;;;5073408;28;20192;-65
2021/12/14 06:26:37;;;;;;;0.40;0.40;;;;;;;;;;5055564;28;20166;-65
2021/12/14 06:29:05;;;;;;;0.40;0.40;;;;;;;;;;5053489;28;20688;-66
2021/12/14 06:31:30;;;;;;;0.50;0.50;;;;;;;;;;5052787;28;20170;-66
2021/12/14 06:33:56;;;;;;;0.50;0.50;;;;;;;;;;5053096;28;20183;-66
2021/12/14 06:36:47;;;;;;;0.50;0.50;;;;;;;;;;5053273;28;20919;-66
2021/12/14 06:39:13;;;;;;;0.50;0.50;;;;;;;;;;5071413;28;20423;-65
2021/12/14 06:41:39;;;;;;;0.50;0.50;;;;;;;;;;5072424;28;20186;-65
2021/12/14 06:44:05;;;;;;;0.40;0.40;;;;;;;;;;5072931;28;20463;-66
2021/12/14 06:46:36;;;;;;;0.50;0.50;;;;;;;;;;5054928;28;20425;-66
2021/12/14 06:49:07;;;;;;;0.40;0.40;;;;;;;;;;5073078;28;20409;-66
2021/12/14 06:51:39;;;;;;;0.50;0.50;;;;;;;;;;5072296;28;20175;-66
2021/12/14 06:54:07;;;;;;;0.40;0.40;;;;;;;;;;5073073;28;20178;-65
2021/12/14 06:56:34;;;;;;;0.60;0.60;;;;;;;;;;5073223;28;20216;-65
2021/12/14 06:59:01;;;;;;;0.50;0.50;;;;;;;;;;5073105;28;20173;-65
2021/12/14 07:01:32;;;;;;;0.50;0.50;;;;;;;;;;5072297;28;20178;-66
2021/12/14 07:04:01;;;;;;;0.50;0.50;;;;;;;;;;5072606;28;20672;-66
2021/12/14 07:06:32;;;;;;;0.50;0.50;;;;;;;;;;5072369;28;20180;-66
2021/12/14 07:09:09;;;;;;;0.50;0.50;;;;;;;;;;5072644;28;20202;-64
2021/12/14 07:11:36;;;;;;;0.50;0.50;;;;;;;;;;5071844;28;20251;-66
2021/12/14 07:14:03;;;;;;;0.50;0.50;;;;;;;;;;5072193;28;20671;-66
2021/12/14 07:16:37;;;;;;;0.50;0.50;;;;;;;;;;5072559;28;20590;-66
2021/12/14 07:19:04;;;;;;;0.40;0.40;;;;;;;;;;5072510;28;20327;-64
2021/12/14 07:21:42;;;;;;;0.50;0.50;;;;;;;;;;5067959;28;20209;-66
2021/12/14 07:24:23;;;;;;;0.50;0.50;;;;;;;;;;5071974;28;20208;-65
2021/12/14 07:27:12;;;;;;;0.50;0.50;;;;;;;;;;5053557;28;20174;-66
2021/12/14 07:29:38;;;;;;;0.40;0.40;;;;;;;;;;5071994;28;20649;-66
2021/12/14 07:32:05;;;;;;;0.50;0.50;;;;;;;;;;5070772;28;20248;-66
2021/12/14 07:34:31;;;;;;;0.50;0.50;;;;;;;;;;5071948;28;20220;-66
2021/12/14 07:36:57;;;;;;;0.50;0.50;;;;;;;;;;5070486;28;20183;-66
2021/12/14 07:39:23;;;;;;;0.40;0.40;;;;;;;;;;5072053;28;20174;-66
2021/12/14 07:41:53;;;;;;;0.40;0.40;;;;;;;;;;5071301;28;20180;-66
2021/12/14 07:44:40;;;;;;;0.40;0.40;;;;;;;;;;5071705;28;20561;-66
2021/12/14 07:47:08;;;;;;;0.50;0.50;;;;;;;;;;5072858;28;20173;-66
2021/12/14 07:49:42;;;;;;;0.50;0.50;;;;;;;;;;5083652;28;20180;-66
2021/12/14 07:52:11;;;;;;;0.50;0.50;;;;;;;;;;5072172;28;20222;-66
2021/12/14 07:54:39;;;;;;;0.50;0.50;;;;;;;;;;5077660;28;20848;-65
2021/12/14 07:57:07;;;;;;;0.50;0.50;;;;;;;;;;5071836;28;20170;-66
2021/12/14 07:59:39;;;;;;;0.50;0.50;;;;;;;;;;5071776;28;20243;-65
2021/12/14 08:02:22;;;;;;;0.50;0.50;;;;;;;;;;5071132;28;20206;-66
2021/12/14 08:04:56;;;;;;;0.50;0.50;;;;;;;;;;5071537;28;20240;-66
2021/12/14 08:07:27;;;;;;;0.50;0.50;;;;;;;;;;5071401;28;20170;-65
2021/12/14 08:09:54;;;;;;;0.50;0.50;;;;;;;;;;5052562;28;20221;-66
2021/12/14 08:12:32;;;;;;;0.50;0.50;;;;;;;;;;5070650;28;20169;-66
2021/12/14 08:15:04;;;;;;;0.50;0.50;;;;;;;;;;5071538;28;20190;-66
2021/12/14 08:17:31;;;;;;;0.50;0.50;;;;;;;;;;5071802;28;20256;-64
2021/12/14 08:19:57;;;;;;;0.50;0.50;;;;;;;;;;5053306;28;20167;-66
2021/12/14 08:22:37;;;;;;;0.50;0.50;;;;;;;;;;5070841;28;20240;-66
2021/12/14 08:25:05;;;;;;;0.50;0.50;;;;;;;;;;5071531;28;20416;-65
2021/12/14 08:27:31;;;;;;;0.50;0.50;;;;;;;;;;5071727;28;20179;-66
2021/12/14 08:29:59;;;;;;;0.50;0.50;;;;;;;;;;5071701;28;20177;-66
2021/12/14 08:32:29;;;;;;;0.50;0.50;;;;;;;;;;5070662;28;20219;-66
2021/12/14 08:34:58;;;;;;;0.50;0.50;;;;;;;;;;5071158;28;20202;-66
2021/12/14 08:37:35;;;;;;;0.47;0.47;;;;;;;;;;5070314;28;20225;-66
2021/12/14 08:40:05;;;;;;;0.50;0.50;;;;;;;;;;5071408;28;20605;-65
2021/12/14 08:42:39;;;;;;;0.40;0.40;;;;;;;;;;5071126;28;20175;-66
2021/12/14 08:45:24;;;;;;;0.50;0.50;;;;;;;;;;5073913;28;20187;-66
2021/12/14 08:47:52;;;;;;;0.50;0.50;;;;;;;;;;5068974;28;20190;-65
2021/12/14 08:50:18;;;;;;;0.50;0.50;;;;;;;;;;5086458;28;20174;-66
2021/12/14 08:52:45;;;;;;;0.50;0.50;;;;;;;;;;5095615;28;20180;-66
2021/12/14 08:55:13;;;;;;;0.50;0.50;;;;;;;;;;5095158;28;20202;-66
2021/12/14 08:57:40;;;;;;;0.50;0.50;;;;;;;;;;5095364;28;20173;-66
2021/12/14 09:00:13;;;;;;;0.50;0.50;;;;;;;;;;5095414;28;20549;-65
2021/12/14 09:02:39;;;;;;;0.50;0.50;;;;;;;;;;5095050;28;20169;-66
2021/12/14 09:05:08;;;;;;;0.40;0.40;;;;;;;;;;5095068;28;20193;-66
2021/12/14 09:07:35;;;;;;;0.50;0.50;;;;;;;;;;5094919;28;20183;-65
2021/12/14 09:10:02;;;;;;;0.50;0.50;;;;;;;;;;5095551;28;20176;-65
2021/12/14 09:12:30;;;;;;;0.47;0.47;;;;;;;;;;5094838;28;20657;-67
2021/12/14 09:14:59;;;;;;;0.50;0.50;;;;;;;;;;5094945;28;20625;-66
2021/12/14 09:17:25;;;;;;;0.50;0.50;;;;;;;;;;5095317;28;20173;-66
2021/12/14 09:19:56;;;;;;;0.50;0.50;;;;;;;;;;5088102;28;20651;-66
2021/12/14 09:22:25;;;;;;;0.50;0.50;;;;;;;;;;5074018;28;20179;-66
2021/12/14 09:24:54;;;;;;;0.50;0.50;;;;;;;;;;5074441;28;20285;-66
2021/12/14 09:27:21;;;;;;;0.50;0.50;;;;;;;;;;5074880;28;20170;-66
2021/12/14 09:29:49;;;;;;;0.50;0.50;;;;;;;;;;5074746;28;20549;-67
2021/12/14 09:32:21;;;;;;;0.50;0.50;;;;;;;;;;5074064;28;20562;-66
2021/12/14 09:34:47;;;;;;;0.50;0.50;;;;;;;;;;5099788;22;20970;-64
2021/12/14 09:37:14;;;;;;;0.50;0.50;;;;;;;;;;5093741;28;20183;-64
2021/12/14 09:39:42;;;;;;;0.50;0.50;;;;;;;;;;5094328;28;20397;-64
2021/12/14 09:42:11;;;;;;;0.50;0.50;;;;;;;;;;5093962;28;20597;-64
2021/12/14 09:44:37;;;;;;;0.50;0.50;;;;;;;;;;5091415;28;20225;-64
2021/12/14 09:47:14;;;;;;;0.50;0.50;;;;;;;;;;5074099;28;20178;-64
2021/12/14 09:49:41;;;;;;;0.50;0.50;;;;;;;;;;5073324;28;20244;-64
2021/12/14 09:52:10;;;;;;;0.50;0.50;;;;;;;;;;5073364;28;20225;-64
2021/12/14 09:54:36;;;;;;;0.50;0.50;;;;;;;;;;5073580;28;20202;-64
2021/12/14 09:57:13;;;;;;;0.50;0.50;;;;;;;;;;5073970;28;20207;-64
2021/12/14 09:59:40;;;;;;;0.50;0.50;;;;;;;;;;5073458;28;20228;-64
2021/12/14 10:02:41;;;;;;;0.40;0.40;;;;;;;;;;5063520;28;20532;-64
2021/12/14 10:05:09;;;;;;;0.40;0.40;;;;;;;;;;4934291;29;20227;-64
2021/12/14 10:07:35;;;;;;;0.50;0.50;;;;;;;;;;5031918;28;20180;-64
2021/12/14 10:10:04;;;;;;;0.50;0.50;;;;;;;;;;5053517;28;20262;-64
2021/12/14 10:15:03;;;;;;;0.50;0.50;;;;;;;;;;5053343;28;20239;-65
2021/12/14 10:17:29;;;;;;;0.40;0.40;;;;;;;;;;5035627;28;20266;-64
2021/12/14 10:19:56;;;;;;;0.40;0.40;;;;;;;;;;5035667;28;20175;-64
2021/12/14 10:22:26;;;;;;;0.50;0.50;;;;;;;;;;5034488;28;20180;-64
2021/12/14 10:24:53;;;;;;;0.50;0.50;;;;;;;;;;5053353;28;20663;-64
2021/12/14 10:27:20;;;;;;;0.50;0.50;;;;;;;;;;5053345;28;20203;-64
2021/12/14 10:29:46;;;;;;;0.40;0.40;;;;;;;;;;5053354;28;20196;-65
2021/12/14 10:32:18;;;;;;;0.50;0.50;;;;;;;;;;5052673;28;20172;-65
2021/12/14 10:34:46;;;;;;;0.47;0.47;;;;;;;;;;5053029;28;20560;-65
2021/12/14 10:37:21;;;;;;;0.40;0.40;;;;;;;;;;5053373;28;20180;-65
2021/12/14 10:45:18;;;;;;;0.50;0.50;;;;;;;;;;5052925;28;20691;-64
2021/12/14 10:47:45;;;;;;;0.50;0.50;;;;;;;;;;5052988;28;20173;-65
2021/12/14 10:50:14;;;;;;;0.50;0.50;;;;;;;;;;5034536;28;20639;-64
2021/12/14 10:52:42;;;;;;;0.50;0.50;;;;;;;;;;5053356;28;20167;-64
2021/12/14 10:55:11;;;;;;;0.50;0.50;;;;;;;;;;5052633;28;20721;-64
2021/12/14 10:57:37;;;;;;;0.50;0.50;;;;;;;;;;5052840;28;20187;-65
2021/12/14 11:00:09;;;;;;;0.50;0.50;;;;;;;;;;5052153;28;20257;-65
2021/12/14 11:02:40;;;;;;;0.50;0.50;;;;;;;;;;5052366;28;20168;-65
2021/12/14 11:05:14;;;;;;;0.50;0.50;;;;;;;;;;5052484;28;20200;-64
2021/12/14 11:07:41;;;;;;;0.40;0.40;;;;;;;;;;5051957;28;20543;-65
2021/12/14 11:10:12;;;;;;;0.40;0.40;;;;;;;;;;5052107;28;20541;-65
2021/12/14 11:12:40;;;;;;;0.40;0.40;;;;;;;;;;5052435;28;20226;-65
2021/12/14 11:15:06;;;;;;;0.40;0.40;;;;;;;;;;5051929;28;20195;-64
2021/12/14 11:20:23;;;;;;;0.50;0.50;;;;;;;;;;5052069;28;20210;-65
2021/12/14 11:22:56;;;;;;;0.40;0.40;;;;;;;;;;5052086;28;20199;-64
2021/12/14 11:25:24;;;;;;;0.40;0.40;;;;;;;;;;5034280;28;20199;-64
2021/12/14 11:28:01;;;;;;;0.40;0.40;;;;;;;;;;5051934;28;20255;-65
2021/12/14 11:30:32;;;;;;;0.50;0.50;;;;;;;;;;5051674;28;20167;-65
2021/12/14 11:33:05;;;;;;;0.50;0.50;;;;;;;;;;5052152;28;20172;-65
2021/12/14 11:35:32;;;;;;;0.50;0.50;;;;;;;;;;5051851;28;21122;-64
2021/12/14 11:37:59;;;;;;;0.40;0.40;;;;;;;;;;5051994;28;20207;-64
2021/12/14 11:40:26;;;;;;;0.40;0.40;;;;;;;;;;5051164;28;20360;-64
2021/12/14 11:43:07;;;;;;;0.43;0.43;;;;;;;;;;5033793;28;20200;-65
2021/12/14 11:45:36;;;;;;;0.40;0.40;;;;;;;;;;5051724;28;20202;-65
2021/12/14 11:48:03;;;;;;;0.50;0.50;;;;;;;;;;5051934;28;20171;-65
2021/12/14 11:50:34;;;;;;;0.40;0.40;;;;;;;;;;5051278;28;20238;-65
2021/12/14 11:53:13;;;;;;;0.40;0.40;;;;;;;;;;5051637;28;20191;-64
2021/12/14 11:55:45;;;;;;;0.40;0.40;;;;;;;;;;5051614;28;20208;-65
2021/12/14 11:58:11;;;;;;;0.40;0.40;;;;;;;;;;5051623;28;20438;-65
2021/12/14 12:00:43;;;;;;;0.40;0.40;;;;;;;;;;5054343;28;20218;-65
2021/12/14 12:03:18;;;;;;;0.40;0.40;;;;;;;;;;5062485;28;20460;-65
2021/12/14 12:05:58;;;;;;;0.40;0.40;;;;;;;;;;5071393;28;20825;-65
2021/12/14 12:11:10;;;;;;;0.40;0.40;;;;;;;;;;5070162;28;20715;-65
2021/12/14 12:13:37;;;;;;;0.40;0.40;;;;;;;;;;5071066;28;20394;-65
2021/12/14 12:16:21;;;;;;;0.40;0.40;;;;;;;;;;5071252;28;20417;-65
2021/12/14 12:19:05;;;;;;;0.40;0.40;;;;;;;;;;5071496;28;20175;-65
2021/12/14 12:21:32;;;;;;;0.40;0.40;;;;;;;;;;5070744;28;20372;-65
2021/12/14 12:23:59;;;;;;;0.40;0.40;;;;;;;;;;5071339;28;20276;-64
2021/12/14 12:26:29;;;;;;;0.40;0.40;;;;;;;;;;5070094;28;20198;-65
2021/12/14 12:29:01;;;;;;;0.45;0.45;;;;;;;;;;5071361;28;20183;-65
2021/12/14 12:31:27;;;;;;;0.40;0.40;;;;;;;;;;5070737;28;20186;-64
2021/12/14 12:33:54;;;;;;;0.40;0.40;;;;;;;;;;5071232;28;20250;-65
2021/12/14 12:36:29;;;;;;;0.40;0.40;;;;;;;;;;5071506;28;20559;-65
2021/12/14 12:38:55;;;;;;;0.40;0.40;;;;;;;;;;5064114;28;20186;-64
2021/12/14 12:41:36;;;;;;;0.40;0.40;;;;;;;;;;5071245;28;20221;-64
2021/12/14 12:44:11;;;;;;;0.50;0.50;;;;;;;;;;5071242;28;20790;-64
2021/12/14 12:46:47;;;;;;;0.40;0.40;;;;;;;;;;5071169;28;20195;-65
2021/12/14 12:49:13;;;;;;;0.40;0.40;;;;;;;;;;5071289;28;20171;-65
2021/12/14 12:52:00;;;;;;;0.50;0.50;;;;;;;;;;5070448;28;20177;-68
2021/12/14 12:54:26;;;;;;;0.40;0.40;;;;;;;;;;5071115;28;20410;-65
2021/12/14 12:57:11;;;;;;;0.40;0.40;;;;;;;;;;5067586;28;20179;-64
2021/12/14 12:59:37;;;;;;;0.50;0.50;;;;;;;;;;5071156;28;20841;-65
2021/12/14 13:02:14;;;;;;;0.40;0.40;;;;;;;;;;5070789;28;20167;-65
2021/12/14 13:04:41;;;;;;;0.40;0.40;;;;;;;;;;5070645;28;20206;-65
2021/12/14 13:07:09;;;;;;;0.40;0.40;;;;;;;;;;5052969;28;20175;-65
2021/12/14 13:09:55;;;;;;;0.40;0.40;;;;;;;;;;5071216;28;20171;-65
2021/12/14 13:12:37;;;;;;;0.40;0.40;;;;;;;;;;5070215;28;20175;-64
2021/12/14 13:15:03;;;;;;;0.40;0.40;;;;;;;;;;5070556;28;20195;-65
2021/12/14 13:17:29;;;;;;;0.40;0.40;;;;;;;;;;5070986;28;20225;-65
2021/12/14 13:19:59;;;;;;;0.40;0.40;;;;;;;;;;5070990;28;20171;-65
2021/12/14 13:22:25;;;;;;;0.40;0.40;;;;;;;;;;5070509;28;20402;-64
2021/12/14 13:24:51;;;;;;;0.50;0.50;;;;;;;;;;5070981;28;20257;-64
2021/12/14 13:27:22;;;;;;;0.40;0.40;;;;;;;;;;5070664;28;20172;-64
2021/12/14 13:29:58;;;;;;;0.40;0.40;;;;;;;;;;5071418;28;20210;-64
2021/12/14 13:32:32;;;;;;;0.50;0.50;;;;;;;;;;5073705;28;20684;-64
2021/12/14 13:35:15;;;;;;;0.40;0.40;;;;;;;;;;5074223;28;20793;-65
2021/12/14 13:37:41;;;;;;;0.50;0.50;;;;;;;;;;5056486;28;20171;-64
2021/12/14 13:40:10;;;;;;;0.50;0.50;;;;;;;;;;5073547;28;20562;-64
2021/12/14 13:42:47;;;;;;;0.50;0.50;;;;;;;;;;5074407;28;20501;-65
2021/12/14 13:45:15;;;;;;;0.40;0.40;;;;;;;;;;5074342;28;20320;-64
2021/12/14 13:47:42;;;;;;;0.50;0.50;;;;;;;;;;5074401;28;20175;-64
2021/12/14 13:50:10;;;;;;;0.50;0.50;;;;;;;;;;5073655;28;20167;-63
2021/12/14 13:52:36;;;;;;;0.40;0.40;;;;;;;;;;5073825;28;20175;-64
2021/12/14 13:55:11;;;;;;;0.40;0.40;;;;;;;;;;5073921;28;20221;-64
2021/12/14 13:57:39;;;;;;;0.50;0.50;;;;;;;;;;5074171;28;20494;-65
2021/12/14 14:00:07;;;;;;;0.50;0.50;;;;;;;;;;5073526;28;20249;-64
2021/12/14 14:02:33;;;;;;;0.40;0.40;;;;;;;;;;5073509;28;20175;-65
2021/12/14 14:04:59;;;;;;;0.50;0.50;;;;;;;;;;5073558;28;20297;-64
2021/12/14 14:07:25;;;;;;;0.50;0.50;;;;;;;;;;5073980;28;20409;-64
2021/12/14 14:09:51;;;;;;;0.50;0.50;;;;;;;;;;5056185;28;20171;-64
2021/12/14 14:12:20;;;;;;;0.50;0.50;;;;;;;;;;5073031;28;20404;-64
2021/12/14 14:14:46;;;;;;;0.50;0.50;;;;;;;;;;5073755;28;20198;-64
2021/12/14 14:17:13;;;;;;;0.60;0.60;;;;;;;;;;5073526;28;20202;-64
2021/12/14 14:19:40;;;;;;;0.40;0.40;;;;;;;;;;5073776;28;20175;-64
2021/12/14 14:22:10;;;;;;;0.50;0.50;;;;;;;;;;5072825;28;20258;-62
2021/12/14 14:24:37;;;;;;;0.50;0.50;;;;;;;;;;5073425;28;20217;-65
2021/12/14 14:27:04;;;;;;;0.40;0.40;;;;;;;;;;5073433;28;20604;-65
2021/12/14 14:29:51;;;;;;;0.50;0.50;;;;;;;;;;5073298;28;20198;-64
2021/12/14 14:32:29;;;;;;;0.40;0.40;;;;;;;;;;5072727;28;20608;-64
2021/12/14 14:34:56;;;;;;;0.50;0.50;;;;;;;;;;5057297;28;20689;-64
2021/12/14 14:37:27;;;;;;;0.40;0.40;;;;;;;;;;5073369;28;20183;-63
2021/12/14 14:39:53;;;;;;;0.50;0.50;;;;;;;;;;5072160;28;20179;-65
2021/12/14 14:42:21;;;;;;;0.50;0.50;;;;;;;;;;5071108;28;20715;-64
2021/12/14 14:44:48;;;;;;;0.50;0.50;;;;;;;;;;5072929;28;20482;-64
2021/12/14 14:47:20;;;;;;;0.50;0.50;;;;;;;;;;5073360;28;20163;-65
2021/12/14 14:49:45;;;;;;;0.40;0.40;;;;;;;;;;5074417;28;20171;-65
2021/12/14 14:52:17;;;;;;;0.40;0.40;;;;;;;;;;5055037;28;20673;-65
2021/12/14 14:54:46;;;;;;;0.40;0.40;;;;;;;;;;5072921;28;20785;-64
2021/12/14 14:57:12;;;;;;;0.50;0.50;;;;;;;;;;5072911;28;20214;-64
2021/12/14 14:59:39;;;;;;;0.40;0.40;;;;;;;;;;5072917;28;20171;-65
2021/12/14 15:02:06;;;;;;;0.50;0.50;;;;;;;;;;5072287;28;20928;-65
2021/12/14 15:04:51;;;;;;;0.50;0.50;;;;;;;;;;5072553;28;20202;-64
2021/12/14 15:07:16;;;;;;;0.40;0.40;;;;;;;;;;5072825;28;20178;-65
2021/12/14 15:09:43;;;;;;;0.50;0.50;;;;;;;;;;5072886;28;20176;-64
2021/12/14 15:12:18;;;;;;;0.50;0.50;;;;;;;;;;5054072;28;20500;-65
2021/12/14 15:14:44;;;;;;;0.50;0.50;;;;;;;;;;5072515;28;20191;-64
2021/12/14 15:17:17;;;;;;;0.40;0.40;;;;;;;;;;5072324;28;20186;-64
2021/12/14 15:19:45;;;;;;;0.50;0.50;;;;;;;;;;5072726;28;20408;-64
2021/12/14 15:22:28;;;;;;;0.50;0.50;;;;;;;;;;5053556;28;20178;-64
2021/12/14 15:24:59;;;;;;;0.50;0.50;;;;;;;;;;5072237;28;20611;-65
2021/12/14 15:27:32;;;;;;;0.60;0.60;;;;;;;;;;5072416;28;20221;-64
2021/12/14 15:30:05;;;;;;;0.50;0.50;;;;;;;;;;5054103;28;20259;-64
2021/12/14 15:32:33;;;;;;;0.50;0.50;;;;;;;;;;5072229;28;20296;-65
2021/12/14 15:35:11;;;;;;;0.40;0.40;;;;;;;;;;5094097;22;20277;-64
2021/12/14 15:37:56;;;;;;;0.50;0.50;;;;;;;;;;5071871;28;20186;-64
2021/12/14 15:40:22;;;;;;;0.50;0.50;;;;;;;;;;5053149;28;20181;-64
2021/12/14 15:42:57;;;;;;;0.50;0.50;;;;;;;;;;5071642;28;20174;-65